Map

Track Data

SID SEASON NUMBER BASIN SUBBASIN NAME ISO_TIME NATURE LAT LON WMO_WIND WMO_PRES WMO_AGENCY TRACK_TYPE DIST2LAND LANDFALL IFLAG USA_AGENCY USA_ATCF_ID USA_LAT USA_LON USA_RECORD USA_STATUS USA_WIND USA_PRES USA_SSHS USA_R34_NE USA_R34_SE USA_R34_SW USA_R34_NW USA_R50_NE USA_R50_SE USA_R50_SW USA_R50_NW USA_R64_NE USA_R64_SE USA_R64_SW USA_R64_NW USA_POCI USA_ROCI USA_RMW USA_EYE TOKYO_LAT TOKYO_LON TOKYO_GRADE TOKYO_WIND TOKYO_PRES TOKYO_R50_DIR TOKYO_R50_LONG TOKYO_R50_SHORT TOKYO_R30_DIR TOKYO_R30_LONG TOKYO_R30_SHORT TOKYO_LAND CMA_LAT CMA_LON CMA_CAT CMA_WIND CMA_PRES HKO_LAT HKO_LON HKO_CAT HKO_WIND HKO_PRES NEWDELHI_LAT NEWDELHI_LON NEWDELHI_GRADE NEWDELHI_WIND NEWDELHI_PRES NEWDELHI_CI NEWDELHI_DP NEWDELHI_POCI REUNION_LAT REUNION_LON REUNION_TYPE REUNION_WIND REUNION_PRES REUNION_TNUM REUNION_CI REUNION_RMW REUNION_R34_NE REUNION_R34_SE REUNION_R34_SW REUNION_R34_NW REUNION_R50_NE REUNION_R50_SE REUNION_R50_SW REUNION_R50_NW REUNION_R64_NE REUNION_R64_SE REUNION_R64_SW REUNION_R64_NW BOM_LAT BOM_LON BOM_TYPE BOM_WIND BOM_PRES BOM_TNUM BOM_CI BOM_RMW BOM_R34_NE BOM_R34_SE BOM_R34_SW BOM_R34_NW BOM_R50_NE BOM_R50_SE BOM_R50_SW BOM_R50_NW BOM_R64_NE BOM_R64_SE BOM_R64_SW BOM_R64_NW BOM_ROCI BOM_POCI BOM_EYE BOM_POS_METHOD BOM_PRES_METHOD NADI_LAT NADI_LON NADI_CAT NADI_WIND NADI_PRES WELLINGTON_LAT WELLINGTON_LON WELLINGTON_WIND WELLINGTON_PRES DS824_LAT DS824_LON DS824_STAGE DS824_WIND DS824_PRES TD9636_LAT TD9636_LON TD9636_STAGE TD9636_WIND TD9636_PRES TD9635_LAT TD9635_LON TD9635_WIND TD9635_PRES TD9635_ROCI NEUMANN_LAT NEUMANN_LON NEUMANN_CLASS NEUMANN_WIND NEUMANN_PRES MLC_LAT MLC_LON MLC_CLASS MLC_WIND MLC_PRES USA_GUST BOM_GUST BOM_GUST_PER REUNION_GUST REUNION_GUST_PER USA_SEAHGT USA_SEARAD_NE USA_SEARAD_SE USA_SEARAD_SW USA_SEARAD_NW STORM_SPEED STORM_DIR
1967054S15171 1967 16 SP MM NOT_NAMED 1967-02-23 00:00:00 TS -15.0000 171.000 main 372 352 O________OO___ jtwc_sh SH201967 -15.0000 171.000 -1 -15.0000 171.000 TC -15.0000 171.000 1 5 259
1967054S15171 1967 16 SP MM NOT_NAMED 1967-02-23 03:00:00 TS -15.0457 170.755 main 352 318 P________PP___ SH201967 -15.0325 170.752 -1 -15.0325 170.752 TC -15.0720 170.761 1 5 256
1967054S15171 1967 16 SP MM NOT_NAMED 1967-02-23 06:00:00 TS -15.1184 170.506 main 318 294 O________OP___ jtwc_sh SH201967 -15.1000 170.500 -1 -15.1000 170.500 TC -15.1551 170.517 1 5 248
1967054S15171 1967 16 SP MM NOT_NAMED 1967-02-23 09:00:00 TS -15.2386 170.250 main 294 256 P________PP___ SH201967 -15.2275 170.243 -1 -15.2275 170.243 TC -15.2607 170.265 1 6 240
1967054S15171 1967 16 SP MM NOT_NAMED 1967-02-23 12:00:00 TS -15.4000 170.000 main 256 227 O________OO___ jtwc_sh SH201967 -15.4000 170.000 -1 -15.4000 170.000 TC -15.4000 170.000 1 6 233
1967054S15171 1967 16 SP MM NOT_NAMED 1967-02-23 15:00:00 TS -15.5881 169.766 main 227 200 P________PP___ SH201967 -15.5925 169.785 -1 -15.5925 169.785 TC -15.5793 169.727 1 6 227
1967054S15171 1967 16 SP MM NOT_NAMED 1967-02-23 18:00:00 TS -15.7949 169.562 main 200 174 O________OP___ jtwc_sh SH201967 -15.8000 169.600 -1 -15.8000 169.600 TC -15.7848 169.486 1 6 223
1967054S15171 1967 16 SP MM NOT_NAMED 1967-02-23 21:00:00 TS -16.0043 169.364 main 174 160 P________PP___ SH201967 -16.0075 169.383 -1 -16.0075 169.383 TC -15.9979 169.327 1 5 212
1967054S15171 1967 16 SP MM NOT_NAMED 1967-02-24 00:00:00 TS -16.2000 169.300 main 160 160 O________OO___ jtwc_sh SH201967 -16.2000 169.300 -1 -16.2000 169.300 TC -16.2000 169.300 1 4 160
1967054S15171 1967 16 SP MM NOT_NAMED 1967-02-24 03:00:00 TS -16.3627 169.501 main 181 181 P________PP___ SH201967 -16.3575 169.475 -1 -16.3575 169.475 TC -16.3731 169.552 1 6 121
1967054S15171 1967 16 SP MM NOT_NAMED 1967-02-24 06:00:00 TS -16.5103 169.840 main 213 213 O________OP___ jtwc_sh SH201967 -16.5000 169.800 -1 -16.5000 169.800 TC -16.5310 169.921 1 8 113
1967054S15171 1967 16 SP MM NOT_NAMED 1967-02-24 09:00:00 TS -16.6628 170.233 main 255 255 P________PP___ SH201967 -16.6577 170.210 -1 -16.6577 170.210 TC -16.6731 170.280 1 7 115
1967054S15171 1967 16 SP MM NOT_NAMED 1967-02-24 12:00:00 TS -16.8000 170.500 main 288 288 O________OO___ jtwc_sh SH201967 -16.8000 170.500 -1 -16.8000 170.500 TC -16.8000 170.500 1 3 138
1967054S15171 1967 16 SP MM NOT_NAMED 1967-02-24 15:00:00 TS -16.9040 170.460 main 289 259 P________PP___ SH201967 -16.9073 170.455 -1 -16.9073 170.455 TC -16.8973 170.469 1 3 233
1967054S15171 1967 16 SP MM NOT_NAMED 1967-02-24 18:00:00 TS -16.9946 170.226 main 259 240 O________OP___ jtwc_sh SH201967 -17.0000 170.200 -1 -17.0000 170.200 TC -16.9838 170.277 1 5 250
1967054S15171 1967 16 SP MM NOT_NAMED 1967-02-24 21:00:00 TS -17.0876 169.932 main 230 192 P________PP___ SH201967 -17.0923 169.925 -1 -17.0923 169.925 TC -17.0784 169.947 1 7 253
1967054S15171 1967 16 SP MM NOT_NAMED 1967-02-25 00:00:00 TS -17.2000 169.500 main 192 140 O________OO___ jtwc_sh SH201967 -17.2000 169.500 -1 -17.2000 169.500 TC -17.2000 169.500 1 10 256
1967054S15171 1967 16 SP MM NOT_NAMED 1967-02-25 03:00:00 TS -17.3360 168.902 main 140 113 P________PP___ SH201967 -17.3277 168.887 -1 -17.3277 168.887 TC -17.3526 168.930 1 13 256
1967054S15171 1967 16 SP MM NOT_NAMED 1967-02-25 06:00:00 TS -17.5116 168.222 main 109 105 O________OP___ jtwc_sh SH201967 -17.5000 168.200 -1 -17.5000 168.200 TC -17.5349 168.266 1 13 253
1967054S15171 1967 16 SP MM NOT_NAMED 1967-02-25 09:00:00 TS -17.7348 167.573 main 123 123 P________PP___ SH201967 -17.7275 167.563 -1 -17.7275 167.563 TC -17.7495 167.593 1 13 247
1967054S15171 1967 16 SP MM NOT_NAMED 1967-02-25 12:00:00 TS -18.0000 167.000 main 165 165 O________OO___ jtwc_sh SH201967 -18.0000 167.000 -1 -18.0000 167.000 TC -18.0000 167.000 1 11 241
1967054S15171 1967 16 SP MM NOT_NAMED 1967-02-25 15:00:00 TS -18.2861 166.544 main 217 217 P________PP___ SH201967 -18.2848 166.540 -1 -18.2848 166.540 TC -18.2886 166.553 1 10 231
1967054S15171 1967 16 SP MM NOT_NAMED 1967-02-25 18:00:00 TS -18.6028 166.211 main 260 221 O________OP___ jtwc_sh SH201967 -18.6000 166.200 -1 -18.6000 166.200 TC -18.6083 166.233 1 9 219
1967054S15171 1967 16 SP MM NOT_NAMED 1967-02-25 21:00:00 TS -18.9447 165.979 main 221 175 P________PP___ SH201967 -18.9425 165.970 -1 -18.9425 165.970 TC -18.9489 165.995 1 8 209
1967054S15171 1967 16 SP MM NOT_NAMED 1967-02-26 00:00:00 TS -19.3000 165.800 main 175 O________OO___ jtwc_sh SH201967 -19.3000 165.800 -1 -19.3000 165.800 TC -19.3000 165.800 1 8 205

Digital Typhoon Data and Search

About IBTrACS Database

This database is a web-friendly format of International Best Track Archive for Climate Stewardship (IBTrACS), a global best track data archive curated by NOAA dating back to 1842.

Updated: 2021-10-21